sensor_id;sensor_type;location;lat;lon;timestamp;P1;durP1;ratioP1;P2;durP2;ratioP2
17528;SDS011;8882;53.192;8.184;2023-11-19T05:16:04;31.57;;;8.90;;
17528;SDS011;8882;53.192;8.184;2023-11-19T05:18:30;33.50;;;8.30;;
17528;SDS011;8882;53.192;8.184;2023-11-19T05:20:56;32.57;;;8.07;;
17528;SDS011;8882;53.192;8.184;2023-11-19T05:23:21;38.47;;;7.63;;
17528;SDS011;8882;53.192;8.184;2023-11-19T05:25:47;30.67;;;7.27;;
17528;SDS011;8882;53.192;8.184;2023-11-19T05:28:12;26.17;;;7.33;;
17528;SDS011;8882;53.192;8.184;2023-11-19T05:30:39;31.67;;;7.63;;
17528;SDS011;8882;53.192;8.184;2023-11-19T05:33:05;36.57;;;8.07;;
17528;SDS011;8882;53.192;8.184;2023-11-19T05:35:31;34.00;;;6.93;;
17528;SDS011;8882;53.192;8.184;2023-11-19T05:37:57;29.47;;;6.77;;
17528;SDS011;8882;53.192;8.184;2023-11-19T05:40:23;27.47;;;6.37;;
17528;SDS011;8882;53.192;8.184;2023-11-19T05:42:48;28.30;;;6.30;;
17528;SDS011;8882;53.192;8.184;2023-11-19T05:45:14;26.20;;;5.90;;
17528;SDS011;8882;53.192;8.184;2023-11-19T05:47:40;29.10;;;6.20;;
17528;SDS011;8882;53.192;8.184;2023-11-19T05:50:06;35.23;;;6.63;;
17528;SDS011;8882;53.192;8.184;2023-11-19T05:52:33;39.07;;;6.40;;
17528;SDS011;8882;53.192;8.184;2023-11-19T05:55:00;27.27;;;5.57;;
17528;SDS011;8882;53.192;8.184;2023-11-19T05:57:29;35.03;;;6.33;;
17528;SDS011;8882;53.192;8.184;2023-11-19T05:59:54;34.50;;;6.53;;
17528;SDS011;8882;53.192;8.184;2023-11-19T06:02:20;34.87;;;6.07;;
17528;SDS011;8882;53.192;8.184;2023-11-19T06:04:45;28.27;;;5.63;;
17528;SDS011;8882;53.192;8.184;2023-11-19T06:07:13;33.20;;;5.73;;
17528;SDS011;8882;53.192;8.184;2023-11-19T06:09:40;47.77;;;5.90;;
17528;SDS011;8882;53.192;8.184;2023-11-19T06:12:06;34.30;;;6.50;;
17528;SDS011;8882;53.192;8.184;2023-11-19T06:14:32;37.27;;;5.90;;
17528;SDS011;8882;53.192;8.184;2023-11-19T06:16:57;22.47;;;5.30;;
17528;SDS011;8882;53.192;8.184;2023-11-19T06:19:23;32.43;;;5.83;;
17528;SDS011;8882;53.192;8.184;2023-11-19T06:21:50;26.87;;;4.57;;
17528;SDS011;8882;53.192;8.184;2023-11-19T06:24:15;32.20;;;5.33;;
17528;SDS011;8882;53.192;8.184;2023-11-19T06:26:41;30.93;;;5.00;;
17528;SDS011;8882;53.192;8.184;2023-11-19T06:29:06;29.73;;;6.23;;
17528;SDS011;8882;53.192;8.184;2023-11-19T06:31:32;24.53;;;4.57;;
17528;SDS011;8882;53.192;8.184;2023-11-19T06:33:57;36.90;;;5.93;;
17528;SDS011;8882;53.192;8.184;2023-11-19T06:36:23;24.40;;;4.90;;
17528;SDS011;8882;53.192;8.184;2023-11-19T06:38:49;35.63;;;5.47;;
17528;SDS011;8882;53.192;8.184;2023-11-19T06:41:14;32.10;;;4.87;;
17528;SDS011;8882;53.192;8.184;2023-11-19T06:43:40;26.13;;;4.70;;
17528;SDS011;8882;53.192;8.184;2023-11-19T06:46:05;29.70;;;4.77;;
17528;SDS011;8882;53.192;8.184;2023-11-19T06:48:39;26.67;;;4.90;;
17528;SDS011;8882;53.192;8.184;2023-11-19T06:51:05;27.13;;;4.70;;
17528;SDS011;8882;53.192;8.184;2023-11-19T06:53:30;25.60;;;5.07;;
17528;SDS011;8882;53.192;8.184;2023-11-19T06:55:56;22.23;;;4.50;;
17528;SDS011;8882;53.192;8.184;2023-11-19T06:58:21;24.23;;;4.67;;
17528;SDS011;8882;53.192;8.184;2023-11-19T07:00:47;23.70;;;4.67;;
17528;SDS011;8882;53.192;8.184;2023-11-19T07:03:14;22.20;;;4.33;;
17528;SDS011;8882;53.192;8.184;2023-11-19T07:05:40;31.03;;;4.53;;
17528;SDS011;8882;53.192;8.184;2023-11-19T07:08:06;25.50;;;4.53;;
17528;SDS011;8882;53.192;8.184;2023-11-19T07:10:35;29.43;;;5.63;;
17528;SDS011;8882;53.192;8.184;2023-11-19T07:13:00;25.37;;;5.13;;
17528;SDS011;8882;53.192;8.184;2023-11-19T07:15:26;31.47;;;5.00;;
17528;SDS011;8882;53.192;8.184;2023-11-19T07:17:51;31.60;;;4.80;;
17528;SDS011;8882;53.192;8.184;2023-11-19T07:20:19;31.63;;;5.47;;
17528;SDS011;8882;53.192;8.184;2023-11-19T07:22:45;24.73;;;4.27;;
17528;SDS011;8882;53.192;8.184;2023-11-19T07:25:13;27.83;;;4.87;;
17528;SDS011;8882;53.192;8.184;2023-11-19T07:27:39;27.90;;;4.43;;
17528;SDS011;8882;53.192;8.184;2023-11-19T07:30:05;31.00;;;4.63;;
17528;SDS011;8882;53.192;8.184;2023-11-19T07:32:32;24.30;;;4.83;;
17528;SDS011;8882;53.192;8.184;2023-11-19T07:34:58;29.20;;;5.03;;
17528;SDS011;8882;53.192;8.184;2023-11-19T07:37:24;27.00;;;3.80;;
17528;SDS011;8882;53.192;8.184;2023-11-19T07:39:50;33.53;;;4.43;;
17528;SDS011;8882;53.192;8.184;2023-11-19T07:42:15;30.13;;;4.60;;
17528;SDS011;8882;53.192;8.184;2023-11-19T07:44:41;27.53;;;4.37;;
17528;SDS011;8882;53.192;8.184;2023-11-19T07:47:06;27.87;;;5.03;;
17528;SDS011;8882;53.192;8.184;2023-11-19T07:49:32;20.80;;;4.57;;
17528;SDS011;8882;53.192;8.184;2023-11-19T07:51:58;27.40;;;4.63;;
17528;SDS011;8882;53.192;8.184;2023-11-19T07:54:24;28.13;;;4.73;;
17528;SDS011;8882;53.192;8.184;2023-11-19T07:56:49;25.57;;;4.73;;
17528;SDS011;8882;53.192;8.184;2023-11-19T07:59:15;27.23;;;4.67;;
17528;SDS011;8882;53.192;8.184;2023-11-19T08:01:40;25.80;;;4.47;;
17528;SDS011;8882;53.192;8.184;2023-11-19T08:04:06;24.53;;;4.07;;
17528;SDS011;8882;53.192;8.184;2023-11-19T08:06:32;21.90;;;4.03;;
17528;SDS011;8882;53.192;8.184;2023-11-19T08:08:57;21.17;;;4.57;;
17528;SDS011;8882;53.192;8.184;2023-11-19T08:11:23;22.43;;;3.83;;
17528;SDS011;8882;53.192;8.184;2023-11-19T08:13:49;38.43;;;6.07;;
17528;SDS011;8882;53.192;8.184;2023-11-19T08:16:14;21.00;;;4.77;;
17528;SDS011;8882;53.192;8.184;2023-11-19T08:18:43;27.03;;;4.57;;
17528;SDS011;8882;53.192;8.184;2023-11-19T08:21:09;34.37;;;4.93;;
17528;SDS011;8882;53.192;8.184;2023-11-19T08:23:35;23.43;;;4.40;;
17528;SDS011;8882;53.192;8.184;2023-11-19T08:26:01;25.50;;;4.47;;
17528;SDS011;8882;53.192;8.184;2023-11-19T08:28:26;25.60;;;4.57;;
17528;SDS011;8882;53.192;8.184;2023-11-19T08:30:52;21.27;;;4.73;;
17528;SDS011;8882;53.192;8.184;2023-11-19T08:33:18;24.97;;;4.60;;
17528;SDS011;8882;53.192;8.184;2023-11-19T08:35:44;22.87;;;4.23;;
17528;SDS011;8882;53.192;8.184;2023-11-19T08:38:10;31.83;;;4.60;;
17528;SDS011;8882;53.192;8.184;2023-11-19T08:40:36;30.97;;;4.40;;
17528;SDS011;8882;53.192;8.184;2023-11-19T08:43:02;26.30;;;4.53;;
17528;SDS011;8882;53.192;8.184;2023-11-19T08:45:27;28.67;;;4.60;;
17528;SDS011;8882;53.192;8.184;2023-11-19T08:47:53;23.10;;;4.47;;
17528;SDS011;8882;53.192;8.184;2023-11-19T08:50:18;24.70;;;5.07;;
17528;SDS011;8882;53.192;8.184;2023-11-19T08:52:44;26.27;;;4.27;;
17528;SDS011;8882;53.192;8.184;2023-11-19T08:55:09;23.33;;;4.30;;
17528;SDS011;8882;53.192;8.184;2023-11-19T08:57:36;26.97;;;3.90;;
17528;SDS011;8882;53.192;8.184;2023-11-19T09:00:02;19.27;;;4.50;;
17528;SDS011;8882;53.192;8.184;2023-11-19T09:02:32;26.53;;;4.67;;
17528;SDS011;8882;53.192;8.184;2023-11-19T09:04:59;28.07;;;4.30;;
17528;SDS011;8882;53.192;8.184;2023-11-19T09:07:24;30.87;;;5.83;;
17528;SDS011;8882;53.192;8.184;2023-11-19T09:09:49;24.33;;;4.27;;
17528;SDS011;8882;53.192;8.184;2023-11-19T09:12:15;27.50;;;4.53;;
17528;SDS011;8882;53.192;8.184;2023-11-19T09:14:40;18.17;;;3.40;;
17528;SDS011;8882;53.192;8.184;2023-11-19T09:17:07;23.33;;;4.53;;
17528;SDS011;8882;53.192;8.184;2023-11-19T09:19:32;23.03;;;4.23;;
17528;SDS011;8882;53.192;8.184;2023-11-19T09:21:59;25.40;;;4.67;;
17528;SDS011;8882;53.192;8.184;2023-11-19T09:24:25;22.07;;;4.30;;
17528;SDS011;8882;53.192;8.184;2023-11-19T09:26:50;21.60;;;4.70;;
17528;SDS011;8882;53.192;8.184;2023-11-19T09:29:16;22.80;;;4.33;;
17528;SDS011;8882;53.192;8.184;2023-11-19T09:31:41;23.83;;;4.33;;
17528;SDS011;8882;53.192;8.184;2023-11-19T09:34:07;29.67;;;4.53;;
17528;SDS011;8882;53.192;8.184;2023-11-19T09:36:33;24.60;;;4.60;;
17528;SDS011;8882;53.192;8.184;2023-11-19T09:38:58;25.03;;;4.63;;
17528;SDS011;8882;53.192;8.184;2023-11-19T09:41:25;30.37;;;4.70;;
17528;SDS011;8882;53.192;8.184;2023-11-19T09:43:52;28.83;;;5.00;;
17528;SDS011;8882;53.192;8.184;2023-11-19T09:46:18;20.60;;;3.77;;
17528;SDS011;8882;53.192;8.184;2023-11-19T09:48:45;16.83;;;4.00;;
17528;SDS011;8882;53.192;8.184;2023-11-19T09:51:13;28.20;;;4.03;;
17528;SDS011;8882;53.192;8.184;2023-11-19T09:53:39;24.13;;;4.37;;
17528;SDS011;8882;53.192;8.184;2023-11-19T09:56:05;20.13;;;4.17;;
17528;SDS011;8882;53.192;8.184;2023-11-19T09:58:31;20.20;;;3.70;;
17528;SDS011;8882;53.192;8.184;2023-11-19T10:00:57;23.37;;;4.07;;
17528;SDS011;8882;53.192;8.184;2023-11-19T10:03:32;25.07;;;3.70;;
17528;SDS011;8882;53.192;8.184;2023-11-19T10:06:08;23.27;;;4.70;;
17528;SDS011;8882;53.192;8.184;2023-11-19T10:08:36;23.17;;;4.43;;
17528;SDS011;8882;53.192;8.184;2023-11-19T10:11:04;27.47;;;4.83;;
17528;SDS011;8882;53.192;8.184;2023-11-19T10:13:30;29.10;;;4.77;;
17528;SDS011;8882;53.192;8.184;2023-11-19T10:15:56;26.00;;;4.30;;
17528;SDS011;8882;53.192;8.184;2023-11-19T10:18:27;24.13;;;4.70;;
17528;SDS011;8882;53.192;8.184;2023-11-19T10:20:53;31.70;;;4.77;;
17528;SDS011;8882;53.192;8.184;2023-11-19T10:23:20;29.57;;;4.20;;
17528;SDS011;8882;53.192;8.184;2023-11-19T10:25:46;26.20;;;4.87;;
17528;SDS011;8882;53.192;8.184;2023-11-19T10:28:11;25.67;;;4.73;;
17528;SDS011;8882;53.192;8.184;2023-11-19T10:30:41;30.10;;;4.70;;
17528;SDS011;8882;53.192;8.184;2023-11-19T10:33:10;21.97;;;4.37;;
17528;SDS011;8882;53.192;8.184;2023-11-19T10:35:55;22.17;;;4.27;;
17528;SDS011;8882;53.192;8.184;2023-11-19T10:38:22;29.33;;;4.70;;
17528;SDS011;8882;53.192;8.184;2023-11-19T10:40:48;35.47;;;4.83;;
17528;SDS011;8882;53.192;8.184;2023-11-19T10:43:15;29.00;;;5.07;;
17528;SDS011;8882;53.192;8.184;2023-11-19T10:45:44;26.63;;;4.40;;
17528;SDS011;8882;53.192;8.184;2023-11-19T10:48:10;33.37;;;5.03;;
17528;SDS011;8882;53.192;8.184;2023-11-19T10:50:37;21.23;;;5.37;;
17528;SDS011;8882;53.192;8.184;2023-11-19T10:53:05;33.17;;;4.67;;
17528;SDS011;8882;53.192;8.184;2023-11-19T10:55:32;25.17;;;4.60;;
17528;SDS011;8882;53.192;8.184;2023-11-19T10:58:03;21.83;;;4.13;;
17528;SDS011;8882;53.192;8.184;2023-11-19T11:00:55;24.87;;;4.93;;
17528;SDS011;8882;53.192;8.184;2023-11-19T11:03:24;27.43;;;5.27;;
17528;SDS011;8882;53.192;8.184;2023-11-19T11:05:51;24.23;;;4.90;;
17528;SDS011;8882;53.192;8.184;2023-11-19T11:08:18;24.33;;;4.57;;
17528;SDS011;8882;53.192;8.184;2023-11-19T11:10:50;20.80;;;4.30;;
17528;SDS011;8882;53.192;8.184;2023-11-19T11:13:18;25.07;;;4.03;;
17528;SDS011;8882;53.192;8.184;2023-11-19T11:15:44;35.37;;;4.70;;
17528;SDS011;8882;53.192;8.184;2023-11-19T11:18:11;29.97;;;4.80;;
17528;SDS011;8882;53.192;8.184;2023-11-19T11:20:38;26.03;;;4.97;;
17528;SDS011;8882;53.192;8.184;2023-11-19T11:23:23;22.33;;;4.30;;
17528;SDS011;8882;53.192;8.184;2023-11-19T11:29:08;26.57;;;3.80;;
17528;SDS011;8882;53.192;8.184;2023-11-19T11:37:36;32.03;;;4.93;;
17528;SDS011;8882;53.192;8.184;2023-11-19T11:39:50;33.93;;;5.77;;
17528;SDS011;8882;53.192;8.184;2023-11-19T11:50:21;27.90;;;4.10;;
17528;SDS011;8882;53.192;8.184;2023-11-19T11:55:26;24.10;;;3.93;;
17528;SDS011;8882;53.192;8.184;2023-11-19T11:57:57;17.73;;;3.90;;
17528;SDS011;8882;53.192;8.184;2023-11-19T12:00:26;18.50;;;3.80;;
17528;SDS011;8882;53.192;8.184;2023-11-19T12:03:05;23.00;;;4.07;;
17528;SDS011;8882;53.192;8.184;2023-11-19T12:05:32;28.23;;;4.10;;
17528;SDS011;8882;53.192;8.184;2023-11-19T12:08:05;25.20;;;4.43;;
17528;SDS011;8882;53.192;8.184;2023-11-19T12:10:44;23.30;;;3.67;;
17528;SDS011;8882;53.192;8.184;2023-11-19T12:13:18;27.37;;;4.00;;
17528;SDS011;8882;53.192;8.184;2023-11-19T12:18:31;22.57;;;3.83;;
17528;SDS011;8882;53.192;8.184;2023-11-19T12:20:57;21.20;;;3.67;;
17528;SDS011;8882;53.192;8.184;2023-11-19T12:23:27;17.33;;;3.30;;
17528;SDS011;8882;53.192;8.184;2023-11-19T12:25:54;13.47;;;3.03;;
17528;SDS011;8882;53.192;8.184;2023-11-19T12:28:20;11.27;;;2.50;;
17528;SDS011;8882;53.192;8.184;2023-11-19T12:30:46;12.30;;;2.80;;
17528;SDS011;8882;53.192;8.184;2023-11-19T12:33:13;11.97;;;2.07;;
17528;SDS011;8882;53.192;8.184;2023-11-19T12:35:42;13.13;;;3.67;;
17528;SDS011;8882;53.192;8.184;2023-11-19T12:38:21;17.13;;;3.07;;
17528;SDS011;8882;53.192;8.184;2023-11-19T12:41:07;17.00;;;2.63;;
17528;SDS011;8882;53.192;8.184;2023-11-19T12:43:35;9.37;;;2.13;;
17528;SDS011;8882;53.192;8.184;2023-11-19T12:46:02;14.83;;;3.30;;
17528;SDS011;8882;53.192;8.184;2023-11-19T12:48:54;14.07;;;3.00;;
17528;SDS011;8882;53.192;8.184;2023-11-19T12:51:20;13.40;;;2.37;;
17528;SDS011;8882;53.192;8.184;2023-11-19T12:53:52;12.17;;;2.37;;
17528;SDS011;8882;53.192;8.184;2023-11-19T12:56:22;10.40;;;2.50;;
17528;SDS011;8882;53.192;8.184;2023-11-19T12:58:48;8.47;;;1.87;;
17528;SDS011;8882;53.192;8.184;2023-11-19T13:01:16;9.63;;;2.37;;
17528;SDS011;8882;53.192;8.184;2023-11-19T13:03:43;9.67;;;2.23;;
17528;SDS011;8882;53.192;8.184;2023-11-19T13:06:09;11.73;;;2.10;;
17528;SDS011;8882;53.192;8.184;2023-11-19T13:08:54;10.27;;;2.00;;
17528;SDS011;8882;53.192;8.184;2023-11-19T13:11:33;10.27;;;1.83;;
17528;SDS011;8882;53.192;8.184;2023-11-19T13:14:01;7.33;;;1.80;;
17528;SDS011;8882;53.192;8.184;2023-11-19T13:16:33;12.43;;;2.47;;
17528;SDS011;8882;53.192;8.184;2023-11-19T13:19:01;13.73;;;2.33;;
17528;SDS011;8882;53.192;8.184;2023-11-19T13:21:26;11.27;;;2.70;;
17528;SDS011;8882;53.192;8.184;2023-11-19T13:23:52;12.47;;;2.70;;
17528;SDS011;8882;53.192;8.184;2023-11-19T13:26:17;11.40;;;2.20;;
17528;SDS011;8882;53.192;8.184;2023-11-19T13:28:43;12.90;;;2.37;;
17528;SDS011;8882;53.192;8.184;2023-11-19T13:31:08;12.17;;;2.60;;
17528;SDS011;8882;53.192;8.184;2023-11-19T13:33:35;11.33;;;2.90;;
17528;SDS011;8882;53.192;8.184;2023-11-19T13:36:01;13.00;;;2.67;;
17528;SDS011;8882;53.192;8.184;2023-11-19T13:38:35;12.53;;;3.30;;
17528;SDS011;8882;53.192;8.184;2023-11-19T13:41:02;18.43;;;2.80;;
17528;SDS011;8882;53.192;8.184;2023-11-19T13:43:29;12.27;;;2.33;;
17528;SDS011;8882;53.192;8.184;2023-11-19T13:45:55;14.70;;;2.87;;
17528;SDS011;8882;53.192;8.184;2023-11-19T13:48:21;14.73;;;3.00;;
17528;SDS011;8882;53.192;8.184;2023-11-19T13:50:47;18.20;;;2.93;;
17528;SDS011;8882;53.192;8.184;2023-11-19T13:53:13;14.50;;;3.20;;
17528;SDS011;8882;53.192;8.184;2023-11-19T13:55:39;23.00;;;3.70;;
17528;SDS011;8882;53.192;8.184;2023-11-19T13:58:04;18.03;;;3.77;;
17528;SDS011;8882;53.192;8.184;2023-11-19T14:00:30;15.10;;;4.03;;
17528;SDS011;8882;53.192;8.184;2023-11-19T14:02:55;12.37;;;2.97;;
17528;SDS011;8882;53.192;8.184;2023-11-19T14:05:21;19.50;;;3.27;;
17528;SDS011;8882;53.192;8.184;2023-11-19T14:07:48;15.13;;;3.27;;
17528;SDS011;8882;53.192;8.184;2023-11-19T14:10:14;18.50;;;3.30;;
17528;SDS011;8882;53.192;8.184;2023-11-19T14:12:40;18.67;;;3.10;;
17528;SDS011;8882;53.192;8.184;2023-11-19T14:15:10;15.97;;;3.13;;
17528;SDS011;8882;53.192;8.184;2023-11-19T14:17:39;15.27;;;3.20;;
17528;SDS011;8882;53.192;8.184;2023-11-19T14:20:05;18.37;;;3.43;;
17528;SDS011;8882;53.192;8.184;2023-11-19T14:22:42;13.97;;;3.80;;
17528;SDS011;8882;53.192;8.184;2023-11-19T14:25:09;12.13;;;2.93;;
17528;SDS011;8882;53.192;8.184;2023-11-19T14:27:38;16.80;;;3.27;;
17528;SDS011;8882;53.192;8.184;2023-11-19T14:30:05;15.97;;;3.57;;
17528;SDS011;8882;53.192;8.184;2023-11-19T14:32:31;13.23;;;3.13;;
17528;SDS011;8882;53.192;8.184;2023-11-19T14:34:57;15.57;;;3.40;;
17528;SDS011;8882;53.192;8.184;2023-11-19T14:37:22;14.80;;;2.67;;
17528;SDS011;8882;53.192;8.184;2023-11-19T14:39:48;11.07;;;2.83;;
17528;SDS011;8882;53.192;8.184;2023-11-19T14:42:15;13.67;;;3.10;;
17528;SDS011;8882;53.192;8.184;2023-11-19T14:44:41;13.23;;;2.93;;
17528;SDS011;8882;53.192;8.184;2023-11-19T14:47:07;16.20;;;3.13;;
17528;SDS011;8882;53.192;8.184;2023-11-19T14:49:34;11.63;;;2.43;;
17528;SDS011;8882;53.192;8.184;2023-11-19T14:52:00;12.97;;;2.33;;
17528;SDS011;8882;53.192;8.184;2023-11-19T14:54:25;11.20;;;2.33;;
17528;SDS011;8882;53.192;8.184;2023-11-19T14:56:51;12.47;;;2.53;;
17528;SDS011;8882;53.192;8.184;2023-11-19T14:59:17;18.80;;;3.00;;
17528;SDS011;8882;53.192;8.184;2023-11-19T15:01:44;16.93;;;3.00;;
17528;SDS011;8882;53.192;8.184;2023-11-19T15:04:11;13.93;;;2.80;;
17528;SDS011;8882;53.192;8.184;2023-11-19T15:06:37;18.53;;;2.97;;
17528;SDS011;8882;53.192;8.184;2023-11-19T15:09:03;18.07;;;4.20;;
17528;SDS011;8882;53.192;8.184;2023-11-19T15:11:29;10.80;;;2.63;;
17528;SDS011;8882;53.192;8.184;2023-11-19T15:13:55;11.57;;;2.67;;
17528;SDS011;8882;53.192;8.184;2023-11-19T15:16:21;15.13;;;3.27;;
17528;SDS011;8882;53.192;8.184;2023-11-19T15:18:57;15.23;;;3.23;;
17528;SDS011;8882;53.192;8.184;2023-11-19T15:21:28;20.87;;;3.17;;
17528;SDS011;8882;53.192;8.184;2023-11-19T15:23:54;18.13;;;3.70;;
17528;SDS011;8882;53.192;8.184;2023-11-19T15:26:21;8.97;;;2.60;;
17528;SDS011;8882;53.192;8.184;2023-11-19T15:28:46;15.80;;;3.30;;
17528;SDS011;8882;53.192;8.184;2023-11-19T15:31:12;15.77;;;3.80;;
17528;SDS011;8882;53.192;8.184;2023-11-19T15:33:39;14.90;;;3.80;;
17528;SDS011;8882;53.192;8.184;2023-11-19T15:36:05;18.27;;;3.60;;
17528;SDS011;8882;53.192;8.184;2023-11-19T15:38:33;14.17;;;3.30;;
17528;SDS011;8882;53.192;8.184;2023-11-19T15:41:01;15.77;;;3.20;;
17528;SDS011;8882;53.192;8.184;2023-11-19T15:43:27;22.37;;;3.47;;
17528;SDS011;8882;53.192;8.184;2023-11-19T15:45:54;18.73;;;3.67;;
17528;SDS011;8882;53.192;8.184;2023-11-19T15:48:19;19.90;;;4.47;;
17528;SDS011;8882;53.192;8.184;2023-11-19T15:50:45;20.23;;;3.87;;
17528;SDS011;8882;53.192;8.184;2023-11-19T15:53:11;16.07;;;3.87;;
17528;SDS011;8882;53.192;8.184;2023-11-19T15:55:36;17.70;;;4.47;;
17528;SDS011;8882;53.192;8.184;2023-11-19T15:58:02;18.90;;;4.93;;
17528;SDS011;8882;53.192;8.184;2023-11-19T16:00:28;17.63;;;3.10;;
17528;SDS011;8882;53.192;8.184;2023-11-19T16:02:53;18.70;;;4.60;;
17528;SDS011;8882;53.192;8.184;2023-11-19T16:05:21;18.93;;;3.70;;
17528;SDS011;8882;53.192;8.184;2023-11-19T16:07:48;14.30;;;3.23;;
17528;SDS011;8882;53.192;8.184;2023-11-19T16:10:15;20.70;;;4.40;;
17528;SDS011;8882;53.192;8.184;2023-11-19T16:12:40;30.07;;;8.27;;
17528;SDS011;8882;53.192;8.184;2023-11-19T16:15:06;20.03;;;6.00;;
17528;SDS011;8882;53.192;8.184;2023-11-19T16:17:35;19.13;;;4.43;;
17528;SDS011;8882;53.192;8.184;2023-11-19T16:20:02;20.80;;;6.80;;
17528;SDS011;8882;53.192;8.184;2023-11-19T16:22:31;18.83;;;5.30;;
17528;SDS011;8882;53.192;8.184;2023-11-19T16:24:57;27.57;;;5.27;;
17528;SDS011;8882;53.192;8.184;2023-11-19T16:27:23;25.13;;;9.20;;
17528;SDS011;8882;53.192;8.184;2023-11-19T16:29:49;27.30;;;6.30;;
17528;SDS011;8882;53.192;8.184;2023-11-19T16:32:15;15.13;;;4.00;;
17528;SDS011;8882;53.192;8.184;2023-11-19T16:34:40;18.07;;;4.37;;
17528;SDS011;8882;53.192;8.184;2023-11-19T16:37:08;18.87;;;5.60;;
17528;SDS011;8882;53.192;8.184;2023-11-19T16:39:34;26.53;;;7.13;;
17528;SDS011;8882;53.192;8.184;2023-11-19T16:42:00;19.40;;;3.73;;
17528;SDS011;8882;53.192;8.184;2023-11-19T16:44:26;15.57;;;4.53;;
17528;SDS011;8882;53.192;8.184;2023-11-19T16:46:51;18.63;;;4.30;;
17528;SDS011;8882;53.192;8.184;2023-11-19T16:49:17;23.07;;;4.70;;
17528;SDS011;8882;53.192;8.184;2023-11-19T16:51:46;24.90;;;4.90;;
17528;SDS011;8882;53.192;8.184;2023-11-19T16:54:12;15.27;;;3.97;;
17528;SDS011;8882;53.192;8.184;2023-11-19T16:56:40;20.87;;;4.63;;
17528;SDS011;8882;53.192;8.184;2023-11-19T16:59:06;16.00;;;4.67;;
17528;SDS011;8882;53.192;8.184;2023-11-19T17:01:32;14.63;;;4.00;;
17528;SDS011;8882;53.192;8.184;2023-11-19T17:03:58;22.20;;;4.50;;
17528;SDS011;8882;53.192;8.184;2023-11-19T17:06:23;22.00;;;4.17;;
17528;SDS011;8882;53.192;8.184;2023-11-19T17:08:49;9.70;;;3.73;;
17528;SDS011;8882;53.192;8.184;2023-11-19T17:11:14;19.53;;;3.90;;
17528;SDS011;8882;53.192;8.184;2023-11-19T17:13:40;16.87;;;3.30;;
17528;SDS011;8882;53.192;8.184;2023-11-19T17:16:05;20.47;;;3.30;;
17528;SDS011;8882;53.192;8.184;2023-11-19T17:18:32;17.10;;;3.47;;
17528;SDS011;8882;53.192;8.184;2023-11-19T17:20:58;22.53;;;4.50;;
17528;SDS011;8882;53.192;8.184;2023-11-19T17:23:25;18.40;;;3.50;;
17528;SDS011;8882;53.192;8.184;2023-11-19T17:25:51;18.77;;;4.10;;
17528;SDS011;8882;53.192;8.184;2023-11-19T17:28:17;17.10;;;3.30;;
17528;SDS011;8882;53.192;8.184;2023-11-19T17:30:43;15.00;;;3.60;;
17528;SDS011;8882;53.192;8.184;2023-11-19T17:33:09;14.30;;;3.30;;
17528;SDS011;8882;53.192;8.184;2023-11-19T17:35:34;15.80;;;2.87;;
17528;SDS011;8882;53.192;8.184;2023-11-19T17:38:01;28.07;;;3.83;;
17528;SDS011;8882;53.192;8.184;2023-11-19T17:40:27;24.47;;;3.57;;
17528;SDS011;8882;53.192;8.184;2023-11-19T17:42:52;22.47;;;3.83;;
17528;SDS011;8882;53.192;8.184;2023-11-19T17:45:18;18.00;;;3.30;;
17528;SDS011;8882;53.192;8.184;2023-11-19T17:47:44;17.50;;;3.30;;
17528;SDS011;8882;53.192;8.184;2023-11-19T17:50:09;22.70;;;3.33;;
17528;SDS011;8882;53.192;8.184;2023-11-19T17:52:35;18.67;;;3.43;;
17528;SDS011;8882;53.192;8.184;2023-11-19T17:55:01;15.40;;;3.80;;
17528;SDS011;8882;53.192;8.184;2023-11-19T17:57:29;14.30;;;3.43;;
17528;SDS011;8882;53.192;8.184;2023-11-19T17:59:55;10.80;;;2.80;;
17528;SDS011;8882;53.192;8.184;2023-11-19T18:02:20;14.93;;;3.00;;
17528;SDS011;8882;53.192;8.184;2023-11-19T18:04:47;18.47;;;2.97;;
17528;SDS011;8882;53.192;8.184;2023-11-19T18:07:16;17.83;;;3.63;;
17528;SDS011;8882;53.192;8.184;2023-11-19T18:09:45;15.93;;;4.77;;
17528;SDS011;8882;53.192;8.184;2023-11-19T18:12:10;13.07;;;3.63;;
17528;SDS011;8882;53.192;8.184;2023-11-19T18:14:39;11.93;;;2.90;;
